Time;durP1;ratioP1;P1;durP2;ratioP2;P2;SDS_P1;SDS_P2;PMS_P1;PMS_P2;Temp;Humidity;BMP_temperature;BMP_pressure;BME280_temperature;BME280_humidity;BME280_pressure;Samples;Min_cycle;Max_cycle;Signal;HPM_P1;HPM_P2
2022/07/24 00:00:48;;;;;;;2.20;1.70;;;;;;;;;;4993971;28;20053;-93
2022/07/24 00:03:16;;;;;;;6.70;2.10;;;;;;;;;;4993316;28;20052;-93
2022/07/24 00:05:47;;;;;;;5.22;1.70;;;;;;;;;;4990994;28;20046;-93
2022/07/24 00:08:15;;;;;;;4.28;2.00;;;;;;;;;;4974459;28;20070;-93
2022/07/24 00:10:46;;;;;;;5.43;2.08;;;;;;;;;;4984449;28;20046;-93
2022/07/24 00:13:14;;;;;;;6.10;2.45;;;;;;;;;;4992479;28;20105;-92
2022/07/24 00:15:41;;;;;;;3.55;2.03;;;;;;;;;;4992666;28;20487;-92
2022/07/24 00:18:08;;;;;;;8.95;2.35;;;;;;;;;;4993753;28;20077;-92
2022/07/24 00:20:36;;;;;;;13.73;3.17;;;;;;;;;;4993791;28;20050;-92
2022/07/24 00:23:03;;;;;;;5.35;2.78;;;;;;;;;;4994464;28;20046;-93
2022/07/24 00:25:34;;;;;;;5.68;2.45;;;;;;;;;;4995341;28;20093;-94
2022/07/24 00:28:09;;;;;;;6.88;2.30;;;;;;;;;;4993944;28;20062;-93
2022/07/24 00:30:38;;;;;;;7.07;2.20;;;;;;;;;;5010513;28;20050;-93
2022/07/24 00:33:06;;;;;;;6.40;2.38;;;;;;;;;;4994335;28;20066;-93
2022/07/24 00:35:33;;;;;;;6.82;2.40;;;;;;;;;;4993903;28;20054;-93
2022/07/24 00:38:01;;;;;;;4.60;2.30;;;;;;;;;;4993726;28;20050;-92
2022/07/24 00:40:29;;;;;;;3.35;2.70;;;;;;;;;;4997944;23;20047;-91
2022/07/24 00:43:00;;;;;;;4.63;2.67;;;;;;;;;;5002958;28;20055;-91
2022/07/24 00:48:50;;;;;;;5.55;3.03;;;;;;;;;;5031830;23;20116;-75
2022/07/24 00:51:18;;;;;;;10.68;3.05;;;;;;;;;;5008775;28;20573;-75
2022/07/24 00:53:45;;;;;;;6.63;2.80;;;;;;;;;;5008079;28;20078;-75
2022/07/24 00:56:13;;;;;;;7.13;2.83;;;;;;;;;;5002192;28;20085;-75
2022/07/24 00:58:41;;;;;;;6.53;2.63;;;;;;;;;;5009143;28;20046;-75
2022/07/24 01:01:08;;;;;;;7.38;3.08;;;;;;;;;;5009614;28;20238;-75
2022/07/24 01:03:35;;;;;;;4.95;3.00;;;;;;;;;;5004016;28;20149;-75
2022/07/24 01:06:02;;;;;;;4.80;2.55;;;;;;;;;;5004368;28;20129;-75
2022/07/24 01:08:30;;;;;;;3.83;2.70;;;;;;;;;;5001040;28;20056;-75
2022/07/24 01:10:57;;;;;;;6.25;2.72;;;;;;;;;;5006312;28;20053;-75
2022/07/24 01:13:24;;;;;;;8.63;3.15;;;;;;;;;;5008738;28;20151;-75
2022/07/24 01:15:52;;;;;;;7.47;3.30;;;;;;;;;;5008158;28;20574;-75
2022/07/24 01:18:19;;;;;;;4.65;3.13;;;;;;;;;;5008384;28;20810;-75
2022/07/24 01:20:47;;;;;;;5.70;2.72;;;;;;;;;;5004605;28;20088;-75
2022/07/24 01:23:14;;;;;;;7.07;3.20;;;;;;;;;;5014273;28;20104;-75
2022/07/24 01:25:42;;;;;;;6.07;2.60;;;;;;;;;;5023244;28;20138;-75
2022/07/24 01:28:09;;;;;;;5.85;3.28;;;;;;;;;;5002895;28;20061;-75
2022/07/24 01:30:37;;;;;;;7.72;2.95;;;;;;;;;;5002863;28;20058;-75
2022/07/24 01:33:04;;;;;;;6.13;3.38;;;;;;;;;;5005850;28;20525;-75
2022/07/24 01:35:31;;;;;;;6.88;3.05;;;;;;;;;;5004971;28;20050;-75
2022/07/24 01:37:58;;;;;;;5.85;3.20;;;;;;;;;;5005909;28;20089;-75
2022/07/24 01:40:26;;;;;;;4.70;3.03;;;;;;;;;;5002746;28;20562;-75
2022/07/24 01:42:53;;;;;;;3.50;2.65;;;;;;;;;;5007890;28;20140;-75
2022/07/24 01:45:22;;;;;;;11.07;3.22;;;;;;;;;;5008038;28;20090;-75
2022/07/24 01:47:49;;;;;;;9.32;3.33;;;;;;;;;;5004260;28;20137;-75
2022/07/24 01:50:17;;;;;;;4.18;2.38;;;;;;;;;;5006469;28;20129;-75
2022/07/24 01:52:44;;;;;;;6.85;2.63;;;;;;;;;;5000716;23;20129;-75
2022/07/24 01:55:11;;;;;;;5.65;2.75;;;;;;;;;;4985468;28;20679;-75
2022/07/24 01:57:39;;;;;;;5.50;2.58;;;;;;;;;;4986259;28;20133;-75
2022/07/24 02:00:12;;;;;;;6.97;2.63;;;;;;;;;;4988347;28;20047;-75
2022/07/24 02:02:41;;;;;;;7.50;2.80;;;;;;;;;;4990088;28;20096;-75
2022/07/24 02:05:09;;;;;;;8.10;2.92;;;;;;;;;;4987950;28;20387;-75
2022/07/24 02:07:36;;;;;;;4.20;2.45;;;;;;;;;;4994679;28;20742;-75
2022/07/24 02:10:04;;;;;;;4.45;2.38;;;;;;;;;;4975107;28;20145;-75
2022/07/24 02:12:31;;;;;;;4.82;2.70;;;;;;;;;;4988997;28;20092;-75
2022/07/24 02:14:58;;;;;;;13.82;3.20;;;;;;;;;;4988336;28;20606;-75
2022/07/24 02:17:26;;;;;;;5.75;2.63;;;;;;;;;;4988180;28;20058;-75
2022/07/24 02:19:53;;;;;;;5.80;2.70;;;;;;;;;;5001718;28;20074;-76
2022/07/24 02:22:20;;;;;;;4.60;2.63;;;;;;;;;;4985717;28;20129;-75
2022/07/24 02:24:47;;;;;;;9.35;2.40;;;;;;;;;;4985202;28;20571;-75
2022/07/24 02:27:15;;;;;;;8.50;3.38;;;;;;;;;;4995026;28;20046;-75
2022/07/24 02:29:42;;;;;;;6.20;2.97;;;;;;;;;;4987660;28;20566;-75
2022/07/24 02:32:09;;;;;;;7.43;2.63;;;;;;;;;;4989245;28;20062;-75
2022/07/24 02:34:37;;;;;;;3.63;2.67;;;;;;;;;;4988198;28;21001;-74
2022/07/24 02:37:04;;;;;;;5.38;2.50;;;;;;;;;;4990549;28;20149;-75
2022/07/24 02:39:31;;;;;;;6.97;3.17;;;;;;;;;;4989054;28;20047;-74
2022/07/24 02:41:58;;;;;;;9.00;3.10;;;;;;;;;;4985373;28;20130;-74
2022/07/24 02:44:26;;;;;;;5.38;2.58;;;;;;;;;;4986958;28;20202;-74
2022/07/24 02:46:53;;;;;;;9.68;3.00;;;;;;;;;;4985892;28;20588;-74
2022/07/24 02:49:20;;;;;;;6.18;2.97;;;;;;;;;;4987742;28;20137;-75
2022/07/24 02:51:48;;;;;;;7.07;3.78;;;;;;;;;;4983092;28;20120;-75
2022/07/24 02:54:15;;;;;;;5.43;3.17;;;;;;;;;;4988649;28;20078;-75
2022/07/24 02:56:42;;;;;;;5.28;3.33;;;;;;;;;;5004217;28;20471;-75
2022/07/24 02:59:09;;;;;;;5.30;3.15;;;;;;;;;;4997471;28;20135;-75
2022/07/24 03:01:37;;;;;;;6.28;3.38;;;;;;;;;;4988022;28;20137;-75
2022/07/24 03:04:04;;;;;;;4.93;2.83;;;;;;;;;;4985084;28;20054;-74
2022/07/24 03:06:31;;;;;;;5.35;2.95;;;;;;;;;;4977211;28;20108;-75
2022/07/24 03:08:59;;;;;;;5.95;3.17;;;;;;;;;;4990789;28;20105;-75
2022/07/24 03:11:26;;;;;;;6.97;3.20;;;;;;;;;;4984226;28;20054;-75
2022/07/24 03:13:53;;;;;;;6.03;3.50;;;;;;;;;;4983110;28;20154;-75
2022/07/24 03:16:21;;;;;;;4.72;2.80;;;;;;;;;;5002641;28;20953;-75
2022/07/24 03:18:48;;;;;;;5.07;2.72;;;;;;;;;;4979975;28;20677;-75
2022/07/24 03:21:16;;;;;;;8.18;3.13;;;;;;;;;;4999650;28;20411;-75
2022/07/24 03:24:04;;;;;;;8.95;3.50;;;;;;;;;;4982620;28;20072;-75
2022/07/24 03:26:31;;;;;;;8.23;3.05;;;;;;;;;;4988130;28;20468;-75
2022/07/24 03:28:58;;;;;;;6.78;3.22;;;;;;;;;;4988371;28;20165;-75
2022/07/24 03:31:26;;;;;;;6.30;2.78;;;;;;;;;;4987134;28;20148;-75
2022/07/24 03:33:53;;;;;;;5.50;3.50;;;;;;;;;;4986601;28;20105;-75
2022/07/24 03:36:20;;;;;;;8.82;3.13;;;;;;;;;;5002371;28;20146;-75
2022/07/24 03:38:47;;;;;;;5.57;3.28;;;;;;;;;;5000627;28;20472;-75
2022/07/24 03:41:15;;;;;;;7.47;3.38;;;;;;;;;;4988588;28;20081;-75
2022/07/24 03:43:42;;;;;;;5.20;3.28;;;;;;;;;;4988180;28;20177;-75
2022/07/24 03:46:09;;;;;;;6.03;3.40;;;;;;;;;;4987110;28;20098;-75
2022/07/24 03:48:36;;;;;;;8.35;3.67;;;;;;;;;;4980692;28;20057;-75
2022/07/24 03:51:04;;;;;;;8.63;3.53;;;;;;;;;;4977326;28;20068;-75
2022/07/24 03:53:31;;;;;;;4.63;3.58;;;;;;;;;;4987736;28;20137;-75
2022/07/24 03:56:00;;;;;;;8.15;3.97;;;;;;;;;;4985981;28;20132;-75
2022/07/24 03:58:28;;;;;;;13.32;3.83;;;;;;;;;;4984637;28;20046;-75
2022/07/24 04:00:55;;;;;;;13.10;4.65;;;;;;;;;;4994031;28;20133;-74
2022/07/24 04:03:22;;;;;;;7.10;4.05;;;;;;;;;;4989201;28;20061;-74
2022/07/24 04:05:49;;;;;;;10.52;3.78;;;;;;;;;;4974089;28;20710;-74
2022/07/24 04:08:18;;;;;;;13.98;4.22;;;;;;;;;;4982478;28;20062;-74
2022/07/24 04:10:45;;;;;;;8.88;3.75;;;;;;;;;;4984588;28;20069;-74
2022/07/24 04:13:12;;;;;;;6.90;3.70;;;;;;;;;;4984472;28;20128;-74
2022/07/24 04:15:39;;;;;;;8.20;3.50;;;;;;;;;;4984494;28;20140;-74
2022/07/24 04:18:07;;;;;;;5.95;3.88;;;;;;;;;;4982866;28;20105;-74
2022/07/24 04:20:34;;;;;;;5.85;3.47;;;;;;;;;;4980251;28;20060;-74
2022/07/24 04:23:01;;;;;;;11.00;4.00;;;;;;;;;;4981634;28;20138;-74
2022/07/24 04:25:28;;;;;;;8.77;3.75;;;;;;;;;;4981182;28;20054;-74
2022/07/24 04:27:56;;;;;;;7.25;3.45;;;;;;;;;;4983989;28;20065;-74
2022/07/24 04:30:23;;;;;;;6.90;4.10;;;;;;;;;;4984884;28;20066;-74
2022/07/24 04:32:50;;;;;;;6.10;3.88;;;;;;;;;;4985979;28;20142;-74
2022/07/24 04:35:17;;;;;;;7.75;3.90;;;;;;;;;;4986300;28;20547;-74
2022/07/24 04:37:45;;;;;;;8.98;3.90;;;;;;;;;;4987553;28;20565;-74
2022/07/24 04:40:13;;;;;;;8.75;3.83;;;;;;;;;;4987184;28;20051;-74
2022/07/24 04:42:40;;;;;;;6.05;3.78;;;;;;;;;;4980428;28;20155;-74
2022/07/24 04:45:09;;;;;;;10.50;3.88;;;;;;;;;;4982748;28;20080;-74
2022/07/24 04:47:37;;;;;;;6.50;4.00;;;;;;;;;;4983108;28;20145;-74
2022/07/24 04:50:05;;;;;;;5.63;3.85;;;;;;;;;;4986088;28;20145;-75
2022/07/24 04:52:32;;;;;;;6.97;3.92;;;;;;;;;;4983597;28;20129;-74
2022/07/24 04:55:00;;;;;;;7.10;4.38;;;;;;;;;;4988761;28;20191;-75
2022/07/24 04:57:27;;;;;;;6.15;3.65;;;;;;;;;;4988429;28;20086;-75
2022/07/24 04:59:54;;;;;;;7.35;3.72;;;;;;;;;;4988102;28;20124;-75
2022/07/24 05:02:21;;;;;;;8.82;3.85;;;;;;;;;;4981481;28;20073;-74
2022/07/24 05:04:48;;;;;;;7.78;3.70;;;;;;;;;;4986699;28;20133;-76
2022/07/24 05:07:16;;;;;;;6.80;3.88;;;;;;;;;;4978085;28;20093;-74
2022/07/24 05:09:43;;;;;;;9.35;3.95;;;;;;;;;;4978510;28;20101;-74
2022/07/24 05:12:10;;;;;;;9.93;4.20;;;;;;;;;;4979553;28;20161;-73
2022/07/24 05:14:38;;;;;;;6.40;3.95;;;;;;;;;;4986174;28;20491;-74
2022/07/24 05:17:05;;;;;;;7.45;4.18;;;;;;;;;;5001638;28;20125;-74
2022/07/24 05:19:32;;;;;;;14.98;4.40;;;;;;;;;;4982741;28;20129;-75
2022/07/24 05:22:00;;;;;;;10.10;4.05;;;;;;;;;;5002835;28;20082;-74
2022/07/24 05:24:27;;;;;;;10.70;3.67;;;;;;;;;;4987961;28;20550;-74
2022/07/24 05:26:54;;;;;;;8.60;3.88;;;;;;;;;;5001867;28;20078;-74
2022/07/24 05:32:52;;;;;;;9.50;4.30;;;;;;;;;;4985499;23;20072;-74
2022/07/24 05:35:19;;;;;;;6.47;3.78;;;;;;;;;;4987127;28;20089;-74
2022/07/24 05:37:54;;;;;;;;;;;;;;;;;;4981236;28;20062;-74
2022/07/24 05:40:22;;;;;;;7.47;4.43;;;;;;;;;;4988436;28;19984;-74
2022/07/24 05:42:49;;;;;;;14.77;4.00;;;;;;;;;;5003253;28;20129;-74
2022/07/24 05:45:16;;;;;;;6.28;3.58;;;;;;;;;;4984452;28;20046;-75
2022/07/24 05:47:44;;;;;;;7.28;3.83;;;;;;;;;;4997238;28;20050;-74
2022/07/24 05:50:12;;;;;;;7.57;3.47;;;;;;;;;;4983677;28;20150;-77
2022/07/24 05:52:40;;;;;;;5.50;3.28;;;;;;;;;;4993981;28;20093;-76
2022/07/24 05:55:07;;;;;;;6.65;3.92;;;;;;;;;;4993172;28;20133;-76
2022/07/24 05:57:43;;;;;;;4.68;3.00;;;;;;;;;;4991366;28;20074;-76
2022/07/24 06:00:10;;;;;;;3.40;2.80;;;;;;;;;;4984368;28;20139;-76
2022/07/24 06:02:45;;;;;;;6.32;3.20;;;;;;;;;;4992160;28;20050;-76
2022/07/24 06:05:12;;;;;;;12.45;2.97;;;;;;;;;;4991878;28;20050;-76
2022/07/24 06:07:39;;;;;;;8.00;3.00;;;;;;;;;;4990347;28;20738;-76
2022/07/24 06:10:07;;;;;;;5.70;2.90;;;;;;;;;;5005495;28;20050;-76
2022/07/24 06:12:37;;;;;;;4.90;2.78;;;;;;;;;;4990691;28;20113;-76
2022/07/24 06:15:05;;;;;;;5.65;3.15;;;;;;;;;;5003288;28;20109;-76
2022/07/24 06:17:32;;;;;;;8.43;2.75;;;;;;;;;;5003646;28;20086;-77
2022/07/24 06:19:59;;;;;;;4.55;2.90;;;;;;;;;;5007420;28;20145;-77
2022/07/24 06:22:26;;;;;;;3.53;2.53;;;;;;;;;;4985874;28;20060;-77
2022/07/24 06:24:54;;;;;;;8.73;3.05;;;;;;;;;;5000867;28;20133;-77
2022/07/24 06:27:22;;;;;;;7.63;2.20;;;;;;;;;;4976870;28;20078;-77
2022/07/24 06:29:49;;;;;;;6.80;2.50;;;;;;;;;;4992433;28;20074;-77
2022/07/24 06:32:17;;;;;;;6.45;2.03;;;;;;;;;;5008862;28;20565;-77
2022/07/24 06:34:44;;;;;;;6.35;2.00;;;;;;;;;;5003932;28;20074;-78
2022/07/24 06:37:11;;;;;;;4.85;1.90;;;;;;;;;;4993098;28;20142;-77
2022/07/24 06:39:38;;;;;;;5.15;1.98;;;;;;;;;;4980041;28;20085;-78
2022/07/24 06:42:06;;;;;;;4.80;2.30;;;;;;;;;;5005552;28;20452;-78
2022/07/24 06:44:36;;;;;;;7.57;1.85;;;;;;;;;;4992974;28;20074;-78
2022/07/24 06:47:03;;;;;;;4.03;1.70;;;;;;;;;;5009246;28;20042;-77
2022/07/24 06:49:31;;;;;;;4.63;1.35;;;;;;;;;;4993199;28;20042;-77
2022/07/24 06:51:58;;;;;;;3.20;1.40;;;;;;;;;;5004547;28;20444;-77
2022/07/24 06:54:25;;;;;;;3.65;1.52;;;;;;;;;;4991216;28;20054;-75
2022/07/24 06:56:53;;;;;;;5.40;1.40;;;;;;;;;;4991805;28;20562;-76
2022/07/24 06:59:20;;;;;;;6.63;1.45;;;;;;;;;;4990620;28;20850;-75
2022/07/24 07:01:47;;;;;;;2.78;1.58;;;;;;;;;;5006534;28;20775;-78
2022/07/24 07:04:15;;;;;;;6.20;1.45;;;;;;;;;;5006731;28;20057;-76
2022/07/24 07:06:42;;;;;;;3.72;1.42;;;;;;;;;;5005848;28;20117;-75
2022/07/24 07:09:10;;;;;;;4.43;1.65;;;;;;;;;;5007716;28;20125;-75
2022/07/24 07:11:38;;;;;;;5.45;1.60;;;;;;;;;;4999279;28;20085;-76
2022/07/24 07:14:05;;;;;;;3.60;1.50;;;;;;;;;;4989842;28;20073;-75
2022/07/24 07:16:32;;;;;;;2.80;1.48;;;;;;;;;;4991311;28;20077;-76
2022/07/24 07:19:00;;;;;;;5.97;1.40;;;;;;;;;;5002675;28;20046;-76
2022/07/24 07:21:28;;;;;;;2.25;1.23;;;;;;;;;;4991748;28;20058;-77
2022/07/24 07:23:55;;;;;;;5.13;1.70;;;;;;;;;;4999982;28;20094;-78
2022/07/24 07:26:23;;;;;;;2.80;1.23;;;;;;;;;;4977083;28;20707;-76
2022/07/24 07:28:50;;;;;;;3.70;1.23;;;;;;;;;;4991272;28;20068;-78
2022/07/24 07:31:17;;;;;;;3.63;1.25;;;;;;;;;;4991829;28;20439;-79
2022/07/24 07:33:45;;;;;;;5.20;1.50;;;;;;;;;;5004918;28;20201;-79
2022/07/24 07:36:12;;;;;;;4.85;1.42;;;;;;;;;;4991325;28;20088;-77
2022/07/24 07:38:40;;;;;;;5.72;1.48;;;;;;;;;;4990354;28;20051;-75
2022/07/24 07:41:07;;;;;;;3.72;1.63;;;;;;;;;;4987526;28;20113;-78
2022/07/24 07:43:37;;;;;;;2.45;1.17;;;;;;;;;;4989631;28;20661;-77
2022/07/24 07:46:05;;;;;;;3.97;1.38;;;;;;;;;;4990521;28;20077;-77
2022/07/24 07:48:32;;;;;;;2.10;1.10;;;;;;;;;;5006464;28;21045;-77
2022/07/24 07:51:00;;;;;;;2.95;1.25;;;;;;;;;;5006490;28;20101;-79
2022/07/24 07:53:27;;;;;;;4.95;1.30;;;;;;;;;;5005409;28;20729;-77
2022/07/24 07:55:54;;;;;;;5.38;1.13;;;;;;;;;;4992302;28;20104;-77
2022/07/24 07:58:26;;;;;;;6.22;2.60;;;;;;;;;;4990326;28;20120;-76
2022/07/24 08:00:53;;;;;;;4.90;1.20;;;;;;;;;;4986107;28;20086;-76
2022/07/24 08:03:21;;;;;;;2.50;1.33;;;;;;;;;;4989914;28;20149;-76
2022/07/24 08:08:28;;;;;;;3.60;1.23;;;;;;;;;;5001238;28;20431;-74
2022/07/24 08:10:56;;;;;;;3.35;1.25;;;;;;;;;;5001355;28;20513;-75
2022/07/24 08:13:24;;;;;;;199.80;21.70;;;;;;;;;;5002110;28;20073;-76
2022/07/24 08:15:51;;;;;;;169.45;18.20;;;;;;;;;;4999695;28;20081;-75
2022/07/24 08:18:18;;;;;;;4.57;1.27;;;;;;;;;;5002729;28;20149;-74
2022/07/24 08:20:46;;;;;;;2.65;1.10;;;;;;;;;;4999663;28;20153;-74
2022/07/24 08:23:13;;;;;;;4.82;1.17;;;;;;;;;;5001506;28;20109;-74
2022/07/24 08:25:40;;;;;;;2.28;1.02;;;;;;;;;;4991274;28;20080;-74
2022/07/24 08:28:08;;;;;;;3.70;1.70;;;;;;;;;;4995102;28;20050;-73
2022/07/24 08:30:35;;;;;;;5.20;1.35;;;;;;;;;;4998505;28;20761;-74
2022/07/24 08:33:02;;;;;;;6.43;1.58;;;;;;;;;;4995565;28;20045;-74
2022/07/24 08:35:30;;;;;;;2.53;1.20;;;;;;;;;;4998096;28;20042;-74
2022/07/24 08:38:00;;;;;;;2.75;1.20;;;;;;;;;;5003922;28;20121;-77
2022/07/24 08:40:33;;;;;;;5.57;1.08;;;;;;;;;;5019908;28;20319;-73
2022/07/24 08:43:00;;;;;;;3.95;1.20;;;;;;;;;;4996662;28;20078;-73
2022/07/24 08:45:28;;;;;;;1.50;0.90;;;;;;;;;;4999224;28;20068;-73
2022/07/24 08:47:57;;;;;;;7.82;1.52;;;;;;;;;;5002381;28;20073;-74
2022/07/24 08:50:24;;;;;;;5.55;1.10;;;;;;;;;;4997494;28;20169;-73
2022/07/24 08:52:51;;;;;;;1.25;1.10;;;;;;;;;;4997554;28;20053;-73
2022/07/24 08:55:19;;;;;;;9.43;1.55;;;;;;;;;;4996591;28;20123;-73
2022/07/24 08:57:46;;;;;;;7.05;1.10;;;;;;;;;;4997849;28;20058;-73
2022/07/24 09:00:14;;;;;;;3.58;0.82;;;;;;;;;;4995550;28;20189;-73
2022/07/24 09:02:41;;;;;;;2.55;1.00;;;;;;;;;;5001713;28;20073;-72
2022/07/24 09:05:09;;;;;;;3.47;0.98;;;;;;;;;;5002237;28;21989;-75
2022/07/24 09:07:36;;;;;;;3.67;1.00;;;;;;;;;;5004622;28;20120;-74
2022/07/24 09:10:05;;;;;;;2.97;1.15;;;;;;;;;;5006113;28;20491;-74
2022/07/24 09:12:33;;;;;;;5.40;1.00;;;;;;;;;;5001102;28;20489;-73
2022/07/24 09:15:01;;;;;;;3.60;1.00;;;;;;;;;;5000792;28;20169;-73
2022/07/24 09:17:28;;;;;;;4.47;1.10;;;;;;;;;;5003773;28;20130;-73
2022/07/24 09:19:56;;;;;;;2.20;1.05;;;;;;;;;;5005010;28;20137;-73
2022/07/24 09:22:34;;;;;;;6.50;1.40;;;;;;;;;;5002421;28;20181;-73
2022/07/24 09:25:11;;;;;;;3.25;0.82;;;;;;;;;;5006411;28;20714;-73
2022/07/24 09:27:39;;;;;;;3.30;1.25;;;;;;;;;;5006489;28;20085;-73
2022/07/24 09:30:07;;;;;;;1.67;0.80;;;;;;;;;;4999569;28;20128;-74
2022/07/24 09:32:39;;;;;;;1.48;0.95;;;;;;;;;;5001932;28;20124;-74
2022/07/24 09:35:07;;;;;;;3.90;0.75;;;;;;;;;;5000090;28;20232;-73
2022/07/24 09:37:35;;;;;;;2.13;1.00;;;;;;;;;;5001873;28;20045;-73
2022/07/24 09:40:07;;;;;;;2.35;1.08;;;;;;;;;;5002072;28;20150;-73
2022/07/24 09:42:38;;;;;;;3.90;0.98;;;;;;;;;;5001857;28;20137;-73
2022/07/24 09:45:08;;;;;;;2.15;1.05;;;;;;;;;;5002734;28;20503;-72
2022/07/24 09:47:36;;;;;;;1.38;0.98;;;;;;;;;;5004206;28;20046;-72
2022/07/24 09:50:13;;;;;;;1.35;1.13;;;;;;;;;;4999264;28;20066;-72
2022/07/24 09:52:42;;;;;;;2.15;1.02;;;;;;;;;;5005190;28;20160;-72
2022/07/24 09:55:25;;;;;;;3.03;0.93;;;;;;;;;;5005810;28;20141;-72
2022/07/24 09:57:53;;;;;;;2.00;1.08;;;;;;;;;;5005485;28;20100;-72
2022/07/24 10:00:20;;;;;;;1.73;1.00;;;;;;;;;;5002268;28;20056;-72
2022/07/24 10:02:50;;;;;;;1.60;1.02;;;;;;;;;;5004048;28;20074;-72
2022/07/24 10:05:17;;;;;;;2.38;1.30;;;;;;;;;;5003020;28;20744;-72
2022/07/24 10:07:49;;;;;;;1.10;1.00;;;;;;;;;;5001448;28;20116;-72
2022/07/24 10:10:16;;;;;;;2.75;1.30;;;;;;;;;;4996246;28;20140;-72
2022/07/24 10:12:46;;;;;;;1.60;1.10;;;;;;;;;;5001257;28;20161;-71
2022/07/24 10:15:13;;;;;;;2.05;1.20;;;;;;;;;;5000135;28;20137;-73
2022/07/24 10:17:41;;;;;;;3.88;1.45;;;;;;;;;;4999057;28;20161;-74
2022/07/24 10:20:09;;;;;;;2.05;1.30;;;;;;;;;;5002630;28;20624;-74
2022/07/24 10:23:02;;;;;;;3.22;1.55;;;;;;;;;;5013962;28;20131;-74
2022/07/24 10:25:30;;;;;;;2.35;1.65;;;;;;;;;;5001106;28;20139;-74
2022/07/24 10:28:02;;;;;;;3.08;1.70;;;;;;;;;;5004457;28;20081;-74
2022/07/24 10:30:30;;;;;;;3.55;1.40;;;;;;;;;;5004622;28;20657;-75
2022/07/24 10:32:57;;;;;;;2.95;1.15;;;;;;;;;;5003505;28;20063;-75
2022/07/24 10:35:26;;;;;;;8.75;1.88;;;;;;;;;;5002977;28;20045;-75
2022/07/24 10:38:03;;;;;;;6.47;1.40;;;;;;;;;;5002961;28;20117;-74
2022/07/24 10:40:40;;;;;;;2.97;1.48;;;;;;;;;;4997573;28;20812;-75
2022/07/24 10:43:08;;;;;;;6.80;1.55;;;;;;;;;;5003104;28;20048;-74
2022/07/24 10:45:36;;;;;;;2.42;1.55;;;;;;;;;;5009497;28;20046;-74
2022/07/24 10:48:23;;;;;;;2.90;1.52;;;;;;;;;;5005283;28;20092;-75
2022/07/24 10:51:03;;;;;;;4.20;1.88;;;;;;;;;;5005901;28;20410;-75
2022/07/24 10:53:37;;;;;;;3.47;1.48;;;;;;;;;;5009661;28;20495;-75
2022/07/24 10:56:24;;;;;;;11.60;1.40;;;;;;;;;;5008999;28;20058;-75
2022/07/24 10:58:55;;;;;;;2.85;1.75;;;;;;;;;;5001124;28;20049;-76
2022/07/24 11:01:44;;;;;;;2.30;1.30;;;;;;;;;;5006961;28;20137;-76
2022/07/24 11:04:30;;;;;;;5.07;1.27;;;;;;;;;;5004959;28;20049;-76
2022/07/24 11:07:01;;;;;;;2.17;1.40;;;;;;;;;;5001743;28;20042;-76
2022/07/24 11:09:29;;;;;;;2.03;1.55;;;;;;;;;;5002903;28;20672;-75
2022/07/24 11:11:57;;;;;;;8.88;1.98;;;;;;;;;;5004342;28;20129;-77
2022/07/24 11:14:43;;;;;;;3.08;1.60;;;;;;;;;;5020848;28;20054;-75
2022/07/24 11:17:29;;;;;;;1.50;1.40;;;;;;;;;;5002160;28;20485;-76
2022/07/24 11:19:57;;;;;;;2.47;1.40;;;;;;;;;;5003069;28;20082;-76
2022/07/24 11:22:37;;;;;;;2.25;1.60;;;;;;;;;;4993258;28;20145;-76
2022/07/24 11:25:06;;;;;;;7.20;1.77;;;;;;;;;;5006040;28;20053;-75
2022/07/24 11:27:49;;;;;;;5.68;1.75;;;;;;;;;;5002399;28;20058;-75
2022/07/24 11:30:16;;;;;;;1.45;1.25;;;;;;;;;;5003058;28;20073;-74
2022/07/24 11:32:44;;;;;;;5.65;2.10;;;;;;;;;;5004886;28;20068;-76
2022/07/24 11:35:12;;;;;;;3.90;1.50;;;;;;;;;;5005313;28;20058;-76
2022/07/24 11:37:43;;;;;;;4.38;2.05;;;;;;;;;;5007362;28;20100;-76
2022/07/24 11:40:14;;;;;;;4.20;1.67;;;;;;;;;;5003509;28;20198;-75
2022/07/24 11:42:41;;;;;;;6.30;1.83;;;;;;;;;;5002494;28;20757;-76
2022/07/24 11:45:09;;;;;;;4.35;2.10;;;;;;;;;;5002243;28;20069;-74
2022/07/24 11:47:36;;;;;;;4.05;2.20;;;;;;;;;;4999404;28;20053;-75
2022/07/24 11:50:06;;;;;;;2.00;1.80;;;;;;;;;;5007556;28;20077;-75
2022/07/24 11:52:39;;;;;;;4.43;2.10;;;;;;;;;;5003074;28;20137;-74
2022/07/24 11:55:09;;;;;;;2.65;2.10;;;;;;;;;;5000646;28;20133;-73
2022/07/24 11:57:43;;;;;;;2.58;1.80;;;;;;;;;;4999588;28;20147;-73
2022/07/24 12:00:31;;;;;;;2.90;1.65;;;;;;;;;;5002882;28;20046;-75
2022/07/24 12:03:01;;;;;;;4.78;2.45;;;;;;;;;;5000631;28;20490;-76
2022/07/24 12:05:29;;;;;;;2.78;1.90;;;;;;;;;;5004583;28;20054;-76
2022/07/24 12:07:56;;;;;;;5.95;2.58;;;;;;;;;;5001207;28;20491;-74
2022/07/24 12:10:24;;;;;;;4.30;2.00;;;;;;;;;;5002847;28;20049;-74
2022/07/24 12:12:53;;;;;;;4.60;2.08;;;;;;;;;;5004689;28;20073;-76
2022/07/24 12:15:21;;;;;;;3.38;2.30;;;;;;;;;;4998228;28;20059;-76
2022/07/24 12:17:59;;;;;;;6.78;2.58;;;;;;;;;;5021825;28;20156;-76
2022/07/24 12:20:27;;;;;;;6.28;2.72;;;;;;;;;;5005777;28;20160;-75
2022/07/24 12:22:54;;;;;;;6.28;2.40;;;;;;;;;;5007319;28;20125;-77
2022/07/24 12:25:22;;;;;;;2.75;2.00;;;;;;;;;;5007701;28;20088;-75
2022/07/24 12:27:52;;;;;;;3.83;2.15;;;;;;;;;;5006435;28;20112;-75
2022/07/24 12:30:30;;;;;;;5.35;1.88;;;;;;;;;;5000899;28;20092;-76
2022/07/24 12:32:59;;;;;;;4.47;1.92;;;;;;;;;;5005349;28;20061;-76
2022/07/24 12:35:27;;;;;;;18.98;2.55;;;;;;;;;;5001272;28;20134;-76
2022/07/24 12:37:54;;;;;;;3.95;2.42;;;;;;;;;;5002536;28;20088;-76
2022/07/24 12:40:26;;;;;;;3.22;2.25;;;;;;;;;;5006234;28;20060;-76
2022/07/24 12:43:01;;;;;;;4.93;1.85;;;;;;;;;;5005691;28;20153;-76
2022/07/24 12:45:29;;;;;;;9.25;3.08;;;;;;;;;;5000307;28;20132;-76
2022/07/24 12:48:11;;;;;;;2.60;2.10;;;;;;;;;;5001603;28;20057;-76
2022/07/24 12:50:38;;;;;;;3.92;2.50;;;;;;;;;;5002893;28;20076;-76
2022/07/24 12:53:23;;;;;;;2.17;1.63;;;;;;;;;;5004412;28;20168;-76
2022/07/24 12:56:20;;;;;;;3.15;2.25;;;;;;;;;;4999793;28;20901;-76
2022/07/24 12:59:07;;;;;;;4.90;2.30;;;;;;;;;;5002901;28;20034;-76
2022/07/24 13:01:54;;;;;;;2.30;2.10;;;;;;;;;;5000200;28;20046;-76
2022/07/24 13:04:23;;;;;;;3.38;2.42;;;;;;;;;;5004740;28;20610;-76
2022/07/24 13:06:52;;;;;;;4.63;2.33;;;;;;;;;;4993160;28;20129;-76
2022/07/24 13:09:20;;;;;;;3.20;2.50;;;;;;;;;;4995790;28;20129;-76
2022/07/24 13:11:48;;;;;;;2.30;2.10;;;;;;;;;;5000800;28;20100;-76
2022/07/24 13:14:16;;;;;;;3.63;2.10;;;;;;;;;;5003623;28;20090;-76
2022/07/24 13:16:44;;;;;;;2.95;2.33;;;;;;;;;;5004744;28;20056;-77
2022/07/24 13:19:12;;;;;;;8.63;2.40;;;;;;;;;;4987328;28;20061;-77
2022/07/24 13:21:40;;;;;;;6.85;2.30;;;;;;;;;;5001903;28;20077;-76
2022/07/24 13:24:08;;;;;;;4.97;2.15;;;;;;;;;;5005797;28;20104;-76
2022/07/24 13:26:36;;;;;;;8.40;2.40;;;;;;;;;;5005009;28;20085;-76
2022/07/24 13:29:04;;;;;;;3.65;2.35;;;;;;;;;;5004604;28;20054;-77
2022/07/24 13:31:31;;;;;;;7.88;2.90;;;;;;;;;;5000710;28;20129;-77
2022/07/24 13:33:59;;;;;;;6.50;2.45;;;;;;;;;;4998388;28;20100;-76
2022/07/24 13:36:27;;;;;;;10.40;2.40;;;;;;;;;;4998505;28;22040;-77
2022/07/24 13:38:55;;;;;;;3.90;2.00;;;;;;;;;;5004711;28;20056;-77
2022/07/24 13:41:24;;;;;;;4.25;2.30;;;;;;;;;;4998596;28;20042;-77
2022/07/24 13:43:51;;;;;;;3.92;2.17;;;;;;;;;;5006451;28;20065;-77
2022/07/24 13:46:19;;;;;;;16.10;2.92;;;;;;;;;;5007832;28;20080;-77
2022/07/24 13:48:48;;;;;;;3.65;2.08;;;;;;;;;;5006007;28;20053;-77
2022/07/24 13:51:23;;;;;;;5.25;2.22;;;;;;;;;;5005511;28;20108;-77
2022/07/24 13:53:51;;;;;;;3.47;2.35;;;;;;;;;;5008095;28;20057;-77
2022/07/24 13:56:18;;;;;;;3.13;2.20;;;;;;;;;;5002481;28;20051;-77
2022/07/24 13:58:46;;;;;;;3.28;2.38;;;;;;;;;;4998751;28;20058;-77
2022/07/24 14:01:13;;;;;;;2.67;2.05;;;;;;;;;;5005068;28;20149;-76
2022/07/24 14:03:41;;;;;;;3.88;2.30;;;;;;;;;;5007816;28;20105;-77
2022/07/24 14:06:30;;;;;;;7.43;2.83;;;;;;;;;;5005898;28;20425;-77
2022/07/24 14:08:57;;;;;;;3.13;2.25;;;;;;;;;;5002210;28;20068;-77
2022/07/24 14:11:25;;;;;;;7.50;2.25;;;;;;;;;;5002391;28;20133;-77
2022/07/24 14:13:52;;;;;;;2.70;2.10;;;;;;;;;;4995846;28;20514;-76
2022/07/24 14:16:21;;;;;;;3.65;2.00;;;;;;;;;;5008374;28;20133;-77
2022/07/24 14:18:48;;;;;;;3.70;2.20;;;;;;;;;;5024695;28;20734;-77
2022/07/24 14:21:16;;;;;;;12.07;3.22;;;;;;;;;;5007666;28;20046;-77
2022/07/24 14:23:43;;;;;;;4.07;2.10;;;;;;;;;;5009556;28;20648;-77
2022/07/24 14:26:10;;;;;;;3.85;1.95;;;;;;;;;;5005324;28;20140;-77
2022/07/24 14:28:38;;;;;;;10.10;2.25;;;;;;;;;;5007762;28;20100;-77
2022/07/24 14:31:06;;;;;;;4.68;2.58;;;;;;;;;;5004878;28;20054;-74
2022/07/24 14:33:33;;;;;;;4.03;2.10;;;;;;;;;;5003184;28;20050;-74
2022/07/24 14:36:01;;;;;;;3.67;2.45;;;;;;;;;;5003083;28;20132;-74
2022/07/24 14:38:28;;;;;;;4.05;1.88;;;;;;;;;;5002919;28;20854;-74
2022/07/24 14:40:56;;;;;;;3.00;2.20;;;;;;;;;;4999933;28;20137;-74
2022/07/24 14:43:23;;;;;;;3.70;2.28;;;;;;;;;;5005207;28;20489;-73
2022/07/24 14:45:50;;;;;;;5.28;2.17;;;;;;;;;;5003348;28;20872;-73
2022/07/24 14:48:17;;;;;;;5.78;2.30;;;;;;;;;;5003876;28;20078;-77
2022/07/24 14:50:45;;;;;;;3.95;2.20;;;;;;;;;;5007534;28;20072;-76
2022/07/24 14:53:13;;;;;;;2.80;1.98;;;;;;;;;;5005650;28;20361;-76
2022/07/24 14:55:40;;;;;;;2.35;2.00;;;;;;;;;;5009057;28;20488;-76
2022/07/24 14:58:13;;;;;;;2.70;2.35;;;;;;;;;;5004702;28;20586;-76
2022/07/24 15:00:40;;;;;;;3.05;2.08;;;;;;;;;;5005794;28;20093;-76
2022/07/24 15:03:07;;;;;;;3.45;2.28;;;;;;;;;;5008496;28;20129;-77